Time;durP1;ratioP1;P1;durP2;ratioP2;P2;SDS_P1;SDS_P2;PMS_P1;PMS_P2;Temp;Humidity;BMP_temperature;BMP_pressure;BME280_temperature;BME280_humidity;BME280_pressure;Samples;Min_cycle;Max_cycle;Signal;HPM_P1;HPM_P2
2021/12/22 00:02:19;;;;;;;29.20;10.70;;;;;;;-3.02;68.47;97580.88;5096014;28;20446;-33
2021/12/22 00:04:49;;;;;;;13.23;7.20;;;;;;;-3.05;68.41;97575.94;5095986;28;20541;-34
2021/12/22 00:07:17;;;;;;;20.23;8.17;;;;;;;-3.07;67.99;97567.47;5096326;28;20837;-34
2021/12/22 00:09:45;;;;;;;8.83;6.10;;;;;;;-2.97;68.17;97573.53;5095913;28;20941;-33
2021/12/22 00:12:13;;;;;;;9.30;3.93;;;;;;;-2.97;67.65;97583.91;5096170;28;20877;-34
2021/12/22 00:14:41;;;;;;;4.40;3.77;;;;;;;-2.94;67.80;97588.84;5095806;28;20927;-33
2021/12/22 00:17:09;;;;;;;8.23;5.30;;;;;;;-2.95;67.81;97589.78;5095939;28;20491;-34
2021/12/22 00:19:36;;;;;;;11.23;5.50;;;;;;;-2.89;68.31;97596.22;5095726;28;20449;-34
2021/12/22 00:22:04;;;;;;;14.37;6.20;;;;;;;-2.86;68.93;97602.94;5096008;28;20457;-34
2021/12/22 00:24:31;;;;;;;10.73;3.70;;;;;;;-2.85;68.90;97589.00;5095590;28;20442;-37
2021/12/22 00:26:58;;;;;;;10.83;4.67;;;;;;;-2.81;68.55;97599.00;5095538;28;20504;-37
2021/12/22 00:29:26;;;;;;;5.27;4.10;;;;;;;-2.78;69.02;97603.09;5095359;28;20834;-38
2021/12/22 00:32:10;;;;;;;5.17;4.13;;;;;;;-2.78;68.77;97590.94;5095486;28;20794;-37
2021/12/22 00:34:46;;;;;;;13.20;3.73;;;;;;;-2.83;68.08;97597.50;5095460;28;20427;-38
2021/12/22 00:37:15;;;;;;;8.13;4.47;;;;;;;-2.81;68.79;97612.00;5096113;28;20569;-38
2021/12/22 00:39:43;;;;;;;7.13;4.50;;;;;;;-2.80;68.60;97602.41;5095257;28;20923;-37
2021/12/22 00:42:11;;;;;;;14.80;8.43;;;;;;;-2.79;69.03;97598.88;5095231;28;20475;-38
2021/12/22 00:44:39;;;;;;;20.03;7.60;;;;;;;-2.80;69.05;97605.00;5095486;28;20984;-38
2021/12/22 00:47:08;;;;;;;15.00;6.43;;;;;;;-2.79;68.75;97596.28;5095485;28;20530;-38
2021/12/22 00:49:36;;;;;;;10.37;5.43;;;;;;;-2.89;69.35;97581.47;5095040;28;20449;-37
2021/12/22 00:52:04;;;;;;;20.47;7.17;;;;;;;-2.77;69.26;97591.78;5095103;28;20439;-36
2021/12/22 00:54:32;;;;;;;16.67;5.13;;;;;;;-2.77;69.24;97591.78;5095058;28;20443;-37
2021/12/22 00:57:04;;;;;;;17.53;5.03;;;;;;;-2.77;69.25;97591.78;5094892;28;20487;-37
2021/12/22 00:59:32;;;;;;;14.40;7.00;;;;;;;-2.78;68.57;97601.31;5094931;28;20438;-37
2021/12/22 01:01:59;;;;;;;17.97;6.77;;;;;;;-2.78;68.89;97603.09;5095093;28;20446;-37
2021/12/22 01:04:28;;;;;;;18.17;6.20;;;;;;;-2.80;68.91;97605.84;5094815;28;20442;-37
2021/12/22 01:06:55;;;;;;;27.07;9.80;;;;;;;-2.80;68.75;97615.41;5094734;28;20446;-37
2021/12/22 01:09:23;;;;;;;21.57;8.50;;;;;;;-2.83;69.10;97602.69;5094706;28;20446;-37
2021/12/22 01:11:51;;;;;;;17.80;7.70;;;;;;;-2.84;69.24;97601.03;5093709;28;20445;-37
2021/12/22 01:14:21;;;;;;;7.07;4.40;;;;;;;-2.87;69.76;97591.72;5095726;28;20792;-37
2021/12/22 01:16:50;;;;;;;12.77;4.40;;;;;;;-2.89;69.79;97591.84;5094870;28;20490;-37
2021/12/22 01:19:26;;;;;;;10.00;5.73;;;;;;;-2.91;69.76;97598.97;5094815;28;20489;-36
2021/12/22 01:22:02;;;;;;;24.87;6.50;;;;;;;-2.91;70.06;97591.16;5094580;28;20965;-36
2021/12/22 01:24:33;;;;;;;19.53;9.90;;;;;;;-2.95;69.21;97597.56;5094488;28;20771;-36
2021/12/22 01:27:06;;;;;;;35.17;11.63;;;;;;;-2.96;69.31;97593.34;5094381;28;20451;-36
2021/12/22 01:29:35;;;;;;;19.13;9.10;;;;;;;-2.98;69.55;97592.66;5094145;28;20863;-36
2021/12/22 01:32:03;;;;;;;18.07;8.30;;;;;;;-3.01;69.86;97592.94;5094315;28;20478;-36
2021/12/22 01:34:31;;;;;;;16.23;7.33;;;;;;;-3.03;70.36;97589.63;5094223;28;20446;-36
2021/12/22 01:36:59;;;;;;;23.83;8.67;;;;;;;-3.06;69.72;97591.66;5094465;28;20895;-36
2021/12/22 01:39:27;;;;;;;17.23;6.30;;;;;;;-3.09;69.80;97585.78;5094164;28;20447;-37
2021/12/22 01:41:54;;;;;;;13.30;6.70;;;;;;;-3.10;69.92;97593.69;5094454;28;20514;-36
2021/12/22 01:44:35;;;;;;;22.60;8.97;;;;;;;-3.14;70.06;97587.09;5094082;28;20449;-36
2021/12/22 01:50:10;;;;;;;19.63;6.73;;;;;;;-3.21;70.55;97575.59;5052286;28;20439;-36
2021/12/22 01:52:39;;;;;;;14.93;6.57;;;;;;;-3.30;70.40;97583.22;5051675;28;20912;-36
2021/12/22 01:55:14;;;;;;;11.83;5.77;;;;;;;-3.21;70.89;97589.41;5072354;28;20435;-36
2021/12/22 01:57:47;;;;;;;7.70;3.73;;;;;;;-3.24;70.81;97592.28;5094151;28;20514;-36
2021/12/22 02:00:17;;;;;;;5.27;3.70;;;;;;;-3.26;71.25;97582.97;5094214;28;20431;-35
2021/12/22 02:02:45;;;;;;;4.97;3.40;;;;;;;-3.28;71.17;97584.88;5093820;28;20434;-35
2021/12/22 02:05:13;;;;;;;5.13;2.90;;;;;;;-3.32;70.81;97585.13;5093760;28;20805;-37
2021/12/22 02:07:41;;;;;;;3.13;2.60;;;;;;;-3.34;70.92;97576.63;5094004;28;20470;-36
2021/12/22 02:10:26;;;;;;;11.63;4.57;;;;;;;-3.33;70.92;97588.69;5094025;28;20505;-36
2021/12/22 02:12:55;;;;;;;8.33;3.73;;;;;;;-3.35;70.73;97585.41;5093708;28;20431;-36
2021/12/22 02:15:23;;;;;;;13.07;4.87;;;;;;;-3.35;70.71;97588.00;5093619;28;20538;-36
2021/12/22 02:17:50;;;;;;;9.03;4.40;;;;;;;-3.36;70.72;97582.91;5093480;28;20512;-36
2021/12/22 02:20:19;;;;;;;13.07;6.10;;;;;;;-3.37;71.00;97582.09;5093563;28;20446;-35
2021/12/22 02:22:46;;;;;;;7.60;4.63;;;;;;;-3.38;70.84;97585.63;5093231;28;20458;-36
2021/12/22 02:25:18;;;;;;;11.07;5.67;;;;;;;-3.43;71.19;97582.63;5093804;28;20438;-36
2021/12/22 02:27:51;;;;;;;6.13;4.43;;;;;;;-3.43;71.34;97579.22;5093495;28;20865;-37
2021/12/22 02:30:24;;;;;;;16.90;4.60;;;;;;;-3.41;71.46;97580.72;5093333;28;20954;-36
2021/12/22 02:35:43;;;;;;;7.60;3.83;;;;;;;-3.48;71.33;97573.56;5089725;28;20487;-35
2021/12/22 02:38:16;;;;;;;10.40;2.97;;;;;;;-3.51;71.49;97574.63;5093685;28;20479;-36
2021/12/22 02:40:44;;;;;;;11.40;4.67;;;;;;;-3.51;71.58;97579.84;5093367;28;20431;-35
2021/12/22 02:43:14;;;;;;;17.10;5.03;;;;;;;-3.50;71.85;97576.31;5093443;28;20447;-34
2021/12/22 02:45:41;;;;;;;18.90;4.90;;;;;;;-3.49;71.72;97567.53;5093710;28;20857;-34
2021/12/22 02:48:09;;;;;;;12.60;6.50;;;;;;;-3.48;71.79;97558.81;5093422;28;20438;-37
2021/12/22 02:50:36;;;;;;;4.77;3.53;;;;;;;-3.66;71.54;97545.59;5093541;28;20454;-37
2021/12/22 02:53:10;;;;;;;9.17;4.80;;;;;;;-3.51;71.63;97554.72;5093578;28;20451;-37
2021/12/22 02:55:45;;;;;;;12.93;4.33;;;;;;;-3.50;71.45;97566.72;5093609;28;20457;-37
2021/12/22 02:58:20;;;;;;;8.37;4.93;;;;;;;-3.50;72.00;97571.94;5093559;28;20834;-37
2021/12/22 03:01:04;;;;;;;8.40;4.13;;;;;;;-3.50;71.84;97565.91;5093260;28;21010;-37
2021/12/22 03:03:49;;;;;;;11.40;5.37;;;;;;;-3.64;71.63;97538.50;5093552;28;20435;-37
2021/12/22 03:06:25;;;;;;;12.57;5.17;;;;;;;-3.54;71.97;97554.16;5093221;28;20423;-37
2021/12/22 03:08:54;;;;;;;13.63;4.60;;;;;;;-3.55;72.45;97562.88;5093470;28;20484;-37
2021/12/22 03:11:22;;;;;;;12.47;4.83;;;;;;;-3.56;71.93;97566.44;5093084;28;20800;-37
2021/12/22 03:13:49;;;;;;;13.63;6.20;;;;;;;-3.55;72.38;97555.06;5093382;28;20435;-37
2021/12/22 03:16:18;;;;;;;18.50;6.30;;;;;;;-3.56;72.05;97562.06;5093065;28;20450;-37
2021/12/22 03:18:46;;;;;;;13.30;6.87;;;;;;;-3.56;71.86;97561.25;5094126;28;20494;-37
2021/12/22 03:21:20;;;;;;;21.33;9.43;;;;;;;-3.58;71.63;97565.72;5092985;28;20517;-37
2021/12/22 03:23:48;;;;;;;29.67;12.50;;;;;;;-3.59;71.75;97571.84;5093358;28;20484;-36
2021/12/22 03:26:18;;;;;;;60.97;23.60;;;;;;;-3.59;71.71;97564.06;5093199;28;20516;-34
2021/12/22 03:28:46;;;;;;;35.43;14.43;;;;;;;-3.62;71.58;97572.13;5092727;28;20514;-33
2021/12/22 03:31:14;;;;;;;34.07;15.27;;;;;;;-3.60;71.74;97581.44;5092881;28;20447;-34
2021/12/22 03:33:42;;;;;;;28.27;13.03;;;;;;;-3.73;72.17;97553.06;5093839;28;20518;-35
2021/12/22 03:36:10;;;;;;;20.80;8.60;;;;;;;-3.69;72.04;97556.25;5096575;28;20439;-34
2021/12/22 03:38:37;;;;;;;34.07;12.23;;;;;;;-3.64;72.35;97564.47;5096481;28;20497;-33
2021/12/22 03:41:07;;;;;;;31.03;13.30;;;;;;;-3.66;72.16;97575.94;5096488;28;20439;-33
2021/12/22 03:43:37;;;;;;;25.30;11.07;;;;;;;-3.68;72.02;97570.03;5096712;28;20442;-35
2021/12/22 03:46:04;;;;;;;19.70;8.00;;;;;;;-3.69;72.09;97576.19;5096436;28;20438;-34
2021/12/22 03:48:31;;;;;;;21.60;12.37;;;;;;;-3.71;71.85;97577.13;5096630;28;20450;-34
2021/12/22 03:50:59;;;;;;;27.20;12.87;;;;;;;-3.73;71.96;97568.66;5096280;28;20439;-37
2021/12/22 03:53:26;;;;;;;27.17;14.30;;;;;;;-3.74;72.41;97574.81;5096212;28;20441;-37
2021/12/22 03:55:54;;;;;;;42.33;18.53;;;;;;;-3.76;72.54;97566.31;5096462;28;20525;-37
2021/12/22 03:58:22;;;;;;;35.97;18.50;;;;;;;-3.78;73.08;97570.81;5096020;28;20501;-37
2021/12/22 04:00:52;;;;;;;47.73;19.83;;;;;;;-3.81;73.13;97565.03;5096045;28;20449;-36
2021/12/22 04:03:22;;;;;;;48.80;19.20;;;;;;;-3.82;73.17;97566.00;5096358;28;20522;-36
2021/12/22 04:05:50;;;;;;;45.07;19.50;;;;;;;-3.82;73.12;97579.78;5096219;28;20534;-34
2021/12/22 04:08:18;;;;;;;47.93;22.30;;;;;;;-3.82;72.70;97582.41;5095939;28;21030;-34
2021/12/22 04:10:47;;;;;;;56.00;27.00;;;;;;;-3.81;72.95;97588.41;5095903;28;20930;-33
2021/12/22 04:13:15;;;;;;;80.33;35.00;;;;;;;-3.84;73.13;97584.28;5096065;28;21180;-34
2021/12/22 04:15:44;;;;;;;72.57;27.13;;;;;;;-3.85;72.52;97593.03;5096079;28;20443;-35
2021/12/22 04:18:14;;;;;;;46.90;20.63;;;;;;;-3.88;73.07;97588.09;5095649;28;20493;-34
2021/12/22 04:20:41;;;;;;;30.60;15.40;;;;;;;-3.93;73.26;97580.69;5096108;28;20451;-35
2021/12/22 04:23:09;;;;;;;57.53;26.80;;;;;;;-3.96;73.56;97586.13;5095965;28;20525;-33
2021/12/22 04:25:37;;;;;;;73.77;31.50;;;;;;;-3.99;73.15;97595.94;5095632;28;20442;-34
2021/12/22 04:28:08;;;;;;;63.70;29.73;;;;;;;-4.02;72.93;97601.34;5095556;28;20438;-34
2021/12/22 04:30:38;;;;;;;85.13;33.23;;;;;;;-4.04;73.48;97603.25;5095396;28;20558;-33
2021/12/22 04:33:06;;;;;;;60.77;27.03;;;;;;;-4.07;73.40;97598.31;5096279;28;20875;-34
2021/12/22 04:35:35;;;;;;;67.57;36.30;;;;;;;-4.09;74.10;97610.59;5095384;28;20935;-34
2021/12/22 04:38:03;;;;;;;68.73;36.87;;;;;;;-4.11;74.32;97602.94;5095273;28;20486;-34
2021/12/22 04:40:30;;;;;;;65.00;28.27;;;;;;;-4.13;74.15;97610.00;5095259;28;20443;-33
2021/12/22 04:42:58;;;;;;;46.47;19.70;;;;;;;-4.18;74.54;97606.97;5095321;28;20449;-33
2021/12/22 04:45:25;;;;;;;51.50;20.43;;;;;;;-4.22;74.11;97616.75;5095041;28;20439;-36
2021/12/22 04:47:52;;;;;;;43.73;19.30;;;;;;;-4.25;74.15;97611.84;5095168;28;20923;-34
2021/12/22 04:50:21;;;;;;;30.73;15.20;;;;;;;-4.26;74.66;97615.34;5095157;28;20439;-34
2021/12/22 04:52:56;;;;;;;30.20;15.87;;;;;;;-4.27;75.01;97613.72;5095024;28;20535;-34
2021/12/22 04:55:25;;;;;;;18.43;11.10;;;;;;;-4.36;75.13;97602.31;5092984;28;20423;-35
2021/12/22 04:57:53;;;;;;;29.07;12.70;;;;;;;-4.30;75.44;97614.00;5092762;28;20902;-37
2021/12/22 05:00:21;;;;;;;26.30;9.53;;;;;;;-4.55;75.13;97579.63;5093166;28;20443;-34
2021/12/22 05:02:49;;;;;;;19.33;8.67;;;;;;;-4.37;75.35;97608.44;5093090;28;20521;-34
2021/12/22 05:05:17;;;;;;;16.50;9.27;;;;;;;-4.37;75.52;97623.19;5092820;28;20453;-35
2021/12/22 05:07:47;;;;;;;57.43;23.57;;;;;;;-4.38;75.48;97618.94;5092549;28;20447;-34
2021/12/22 05:10:16;;;;;;;34.27;15.37;;;;;;;-4.42;75.38;97605.41;5092874;28;20444;-34
2021/12/22 05:12:46;;;;;;;18.53;9.80;;;;;;;-4.47;75.44;97611.88;5092941;28;20451;-37
2021/12/22 05:15:13;;;;;;;73.93;26.47;;;;;;;-4.40;75.14;97613.06;5092621;28;20516;-37
2021/12/22 05:20:26;;;;;;;81.83;25.80;;;;;;;-4.44;75.83;97620.25;5093131;28;20913;-37
2021/12/22 05:22:54;;;;;;;76.43;29.67;;;;;;;-4.66;75.79;97592.63;5092081;28;20449;-37
2021/12/22 05:25:23;;;;;;;35.97;17.13;;;;;;;-4.47;76.17;97622.25;5092424;28;20447;-37
2021/12/22 05:27:50;;;;;;;38.90;13.97;;;;;;;-4.48;75.95;97615.44;5092386;28;20443;-37
2021/12/22 05:30:17;;;;;;;31.33;12.60;;;;;;;-4.50;75.91;97630.28;5092144;28;20478;-37
2021/12/22 05:32:46;;;;;;;34.00;15.83;;;;;;;-4.52;75.54;97614.84;5092610;28;20445;-38
2021/12/22 05:35:14;;;;;;;40.40;21.00;;;;;;;-4.57;75.85;97648.09;5092812;28;20478;-36
2021/12/22 05:37:41;;;;;;;50.50;24.93;;;;;;;-4.54;76.02;97614.16;5092416;28;20492;-36
2021/12/22 05:40:09;;;;;;;56.40;20.60;;;;;;;-4.60;75.93;97612.88;5092457;28;20443;-36
2021/12/22 05:42:39;;;;;;;49.27;18.73;;;;;;;-4.81;76.28;97578.28;5092133;28;21006;-36
2021/12/22 05:45:07;;;;;;;72.27;21.90;;;;;;;-4.58;75.82;97621.34;5092414;28;20531;-37
2021/12/22 05:47:34;;;;;;;51.53;21.20;;;;;;;-4.58;75.96;97636.91;5091551;28;20447;-36
2021/12/22 05:50:03;;;;;;;50.30;23.83;;;;;;;-4.61;75.53;97634.53;5092316;28;20446;-36
2021/12/22 05:52:30;;;;;;;60.73;24.20;;;;;;;-4.61;75.34;97631.13;5091969;28;20926;-36
2021/12/22 05:54:58;;;;;;;131.17;41.53;;;;;;;-4.60;75.56;97628.44;5091923;28;20439;-36
2021/12/22 05:57:25;;;;;;;109.13;44.50;;;;;;;-4.60;75.97;97633.63;5091539;28;20443;-36
2021/12/22 05:59:54;;;;;;;86.77;37.90;;;;;;;-4.59;76.04;97624.88;5091593;28;20447;-36
2021/12/22 06:02:21;;;;;;;94.73;35.07;;;;;;;-4.57;76.33;97615.22;5091698;28;20443;-36
2021/12/22 06:04:48;;;;;;;105.07;43.17;;;;;;;-4.42;76.01;97620.13;5091768;28;20443;-36
2021/12/22 06:07:16;;;;;;;110.13;43.70;;;;;;;-4.20;75.41;97617.47;5091723;28;20454;-35
2021/12/22 06:09:43;;;;;;;110.07;44.70;;;;;;;-3.92;74.15;97625.59;5091706;28;20455;-36
2021/12/22 06:12:10;;;;;;;109.57;48.63;;;;;;;-3.66;73.81;97625.25;5091660;28;20447;-35
2021/12/22 06:14:38;;;;;;;134.90;51.57;;;;;;;-3.39;73.24;97625.56;5093112;28;20439;-35
2021/12/22 06:17:07;;;;;;;125.40;56.47;;;;;;;-3.11;72.98;97624.06;5093619;28;20446;-36
2021/12/22 06:19:34;;;;;;;156.20;63.70;;;;;;;-2.96;72.04;97608.94;5093522;28;21010;-34
2021/12/22 06:22:01;;;;;;;124.43;55.47;;;;;;;-2.55;70.58;97619.31;5093922;28;20508;-36
2021/12/22 06:24:29;;;;;;;145.90;61.43;;;;;;;-2.33;69.43;97628.66;5091109;28;20443;-35
2021/12/22 06:26:57;;;;;;;163.47;66.80;;;;;;;-2.17;67.59;97634.16;5091732;28;20554;-35
2021/12/22 06:29:26;;;;;;;172.80;77.23;;;;;;;-1.98;67.78;97640.31;5091364;28;20471;-35
2021/12/22 06:31:53;;;;;;;121.40;48.60;;;;;;;-1.78;67.08;97634.19;5091405;28;20468;-34
2021/12/22 06:34:22;;;;;;;91.40;38.00;;;;;;;-1.53;66.35;97648.38;5091689;28;20451;-35
2021/12/22 06:36:50;;;;;;;54.27;30.73;;;;;;;-1.33;65.35;97651.81;5090924;28;20441;-37
2021/12/22 06:39:18;;;;;;;53.73;26.83;;;;;;;-1.16;64.42;97652.03;5092511;28;20497;-34
2021/12/22 06:41:46;;;;;;;66.73;33.73;;;;;;;-1.00;63.91;97646.22;5093361;28;20458;-37
2021/12/22 06:44:14;;;;;;;45.57;23.13;;;;;;;-0.87;63.36;97647.53;5093381;28;20474;-35
2021/12/22 06:46:42;;;;;;;44.10;22.50;;;;;;;-0.71;62.61;97644.34;5093711;28;20514;-37
2021/12/22 06:49:09;;;;;;;41.40;24.13;;;;;;;-0.63;62.30;97638.38;5093618;28;20471;-35
2021/12/22 06:51:38;;;;;;;31.50;16.27;;;;;;;-0.56;61.75;97652.50;5093239;28;20447;-35
2021/12/22 06:54:06;;;;;;;64.83;27.87;;;;;;;-0.46;61.69;97652.44;5093251;28;20945;-34
2021/12/22 06:56:33;;;;;;;62.13;23.97;;;;;;;-0.30;61.80;97657.00;5093267;28;20435;-35
2021/12/22 06:59:01;;;;;;;59.37;24.80;;;;;;;-0.17;60.60;97648.81;5093451;28;20574;-37
2021/12/22 07:01:32;;;;;;;32.03;18.20;;;;;;;-0.12;59.90;97644.81;5093541;28;20454;-34
2021/12/22 07:04:00;;;;;;;35.53;19.93;;;;;;;0.04;60.03;97659.81;5093516;28;20462;-35
2021/12/22 07:06:27;;;;;;;37.57;21.00;;;;;;;0.12;60.08;97667.72;5093151;28;20443;-35
2021/12/22 07:08:56;;;;;;;21.63;12.30;;;;;;;0.19;59.65;97667.94;5094138;28;20449;-35
2021/12/22 07:11:23;;;;;;;39.47;15.67;;;;;;;0.23;59.55;97658.84;5097409;28;20803;-37
2021/12/22 07:13:50;;;;;;;18.00;10.57;;;;;;;0.34;58.27;97663.84;5097051;28;20443;-34
2021/12/22 07:16:18;;;;;;;11.60;6.63;;;;;;;0.22;58.90;97661.63;5097067;28;20442;-34
2021/12/22 07:18:45;;;;;;;15.53;8.53;;;;;;;0.02;59.14;97666.16;5097155;28;20491;-37
2021/12/22 07:21:13;;;;;;;11.83;7.60;;;;;;;0.02;60.14;97660.94;5097181;28;20922;-36
2021/12/22 07:23:40;;;;;;;21.93;13.20;;;;;;;0.14;60.45;97663.19;5097127;28;20450;-34
2021/12/22 07:26:13;;;;;;;21.80;11.70;;;;;;;0.25;60.40;97664.75;5097103;28;20457;-35
2021/12/22 07:28:41;;;;;;;15.47;8.03;;;;;;;0.33;60.09;97674.47;5096614;28;20511;-36
2021/12/22 07:31:09;;;;;;;20.63;8.80;;;;;;;0.30;60.03;97665.13;5097023;28;20465;-36
2021/12/22 07:33:37;;;;;;;38.43;16.23;;;;;;;0.21;59.68;97668.63;5096673;28;20457;-37
2021/12/22 07:36:06;;;;;;;29.20;15.80;;;;;;;0.17;60.39;97667.28;5097427;28;20458;-37
2021/12/22 07:38:43;;;;;;;21.30;10.50;;;;;;;0.05;60.16;97660.66;5096547;28;20493;-37
2021/12/22 07:41:12;;;;;;;16.80;11.43;;;;;;;0.07;60.48;97664.75;5096625;28;20431;-37
2021/12/22 07:43:39;;;;;;;12.87;8.70;;;;;;;0.26;60.16;97671.63;5095021;28;20456;-38
2021/12/22 07:46:08;;;;;;;10.03;6.37;;;;;;;0.42;59.52;97662.28;5094287;28;20439;-37
2021/12/22 07:48:36;;;;;;;6.80;5.87;;;;;;;0.58;59.58;97662.41;5094310;28;20504;-38
2021/12/22 07:51:04;;;;;;;15.80;8.30;;;;;;;0.68;58.86;97670.97;5094576;28;20442;-37
2021/12/22 07:53:31;;;;;;;15.97;7.43;;;;;;;0.79;58.60;97667.28;5094213;28;20949;-36
2021/12/22 07:55:59;;;;;;;13.83;8.70;;;;;;;0.72;57.87;97637.53;5094204;28;20446;-37
2021/12/22 07:58:28;;;;;;;22.60;6.53;;;;;;;0.99;57.77;97665.28;5093678;28;20505;-37
2021/12/22 08:00:56;;;;;;;17.73;11.20;;;;;;;0.88;57.64;97657.72;5094014;28;20828;-36
2021/12/22 08:03:23;;;;;;;17.73;8.00;;;;;;;0.82;57.08;97670.44;5094022;28;20451;-37
2021/12/22 08:05:52;;;;;;;13.10;6.83;;;;;;;0.72;57.32;97674.13;5094017;28;20447;-37
2021/12/22 08:08:20;;;;;;;9.37;4.60;;;;;;;0.49;57.43;97665.94;5094014;28;20447;-36
2021/12/22 08:10:47;;;;;;;12.80;7.53;;;;;;;0.39;57.03;97679.09;5093417;28;20451;-37
2021/12/22 08:13:15;;;;;;;8.80;5.63;;;;;;;0.25;57.27;97685.66;5093923;28;20443;-37
2021/12/22 08:15:44;;;;;;;11.27;6.13;;;;;;;0.09;57.69;97667.22;5093793;28;20813;-37
2021/12/22 08:18:12;;;;;;;14.73;8.93;;;;;;;0.04;57.32;97679.88;5093656;28;20451;-41
2021/12/22 08:20:40;;;;;;;14.17;8.33;;;;;;;-0.06;57.93;97672.94;5093203;28;20443;-36
2021/12/22 08:23:07;;;;;;;21.47;10.97;;;;;;;-0.10;58.21;97673.41;5093448;28;20443;-37
2021/12/22 08:25:35;;;;;;;12.90;7.90;;;;;;;-0.14;58.34;97683.31;5093709;28;20931;-36
2021/12/22 08:28:02;;;;;;;11.23;6.73;;;;;;;-0.18;58.65;97686.34;5093584;28;20443;-36
2021/12/22 08:30:30;;;;;;;9.33;6.90;;;;;;;-0.18;59.18;97689.78;5093370;28;20478;-37
2021/12/22 08:33:04;;;;;;;4.80;3.50;;;;;;;-0.34;58.00;97687.00;5093761;28;20481;-37
2021/12/22 08:38:50;;;;;;;8.30;4.63;;;;;;;-0.27;58.82;97693.28;5093830;28;20472;-36
2021/12/22 08:41:04;;;;;;;5.77;4.43;;;;;;;-0.24;56.71;97692.97;5093449;28;20410;-37
2021/12/22 08:43:31;;;;;;;6.70;3.93;;;;;;;-0.19;57.29;97703.81;5093542;28;20443;-37
2021/12/22 08:45:58;;;;;;;3.90;3.17;;;;;;;-0.09;56.25;97686.28;5093531;28;20473;-37
2021/12/22 08:48:27;;;;;;;5.43;4.00;;;;;;;0.01;56.36;97665.34;5093460;28;20450;-37
2021/12/22 08:50:55;;;;;;;8.20;3.50;;;;;;;0.48;56.50;97690.44;5092615;28;20793;-37
2021/12/22 08:53:22;;;;;;;7.50;4.73;;;;;;;0.66;55.57;97675.53;5093049;28;20443;-37
2021/12/22 08:55:49;;;;;;;7.47;5.33;;;;;;;0.76;55.12;97681.50;5093002;28;20451;-37
2021/12/22 08:58:16;;;;;;;9.93;5.87;;;;;;;0.76;55.12;97678.88;5093246;28;20915;-36
2021/12/22 09:00:44;;;;;;;14.30;8.63;;;;;;;0.64;55.08;97646.09;5094869;28;20486;-36
2021/12/22 09:03:11;;;;;;;12.47;6.50;;;;;;;0.76;55.09;97673.66;5094954;28;20453;-36
2021/12/22 09:05:40;;;;;;;7.10;5.13;;;;;;;0.74;55.42;97664.31;5094941;28;20439;-36
2021/12/22 09:08:07;;;;;;;21.47;9.00;;;;;;;0.80;55.70;97667.16;5094879;28;20447;-36
2021/12/22 09:10:34;;;;;;;10.87;5.00;;;;;;;0.96;55.58;97668.22;5095147;28;20439;-36
2021/12/22 09:13:02;;;;;;;27.73;11.43;;;;;;;1.12;55.54;97670.09;5094833;28;20450;-36
2021/12/22 09:15:29;;;;;;;12.93;6.33;;;;;;;1.24;54.59;97671.47;5094758;28;20443;-36
2021/12/22 09:17:57;;;;;;;5.67;4.47;;;;;;;1.21;54.26;97664.78;5094951;28;20445;-36
2021/12/22 09:20:24;;;;;;;8.80;3.60;;;;;;;1.09;54.17;97663.41;5094579;28;20536;-36
2021/12/22 09:22:53;;;;;;;7.33;5.60;;;;;;;1.11;54.18;97664.06;5092401;28;20435;-37
2021/12/22 09:25:20;;;;;;;6.37;3.97;;;;;;;0.98;53.59;97663.66;5092422;28;20446;-37
2021/12/22 09:27:48;;;;;;;10.07;7.00;;;;;;;0.94;53.75;97667.56;5092715;28;20800;-36
2021/12/22 09:30:15;;;;;;;4.93;3.43;;;;;;;0.92;53.83;97661.66;5092183;28;20954;-36
2021/12/22 09:32:43;;;;;;;3.80;3.10;;;;;;;0.99;54.01;97644.38;5091428;28;20449;-36
2021/12/22 09:35:10;;;;;;;11.23;5.77;;;;;;;1.25;54.10;97664.44;5091868;28;20533;-37
2021/12/22 09:37:39;;;;;;;12.50;7.00;;;;;;;1.34;54.59;97664.34;5092105;28;20442;-37
2021/12/22 09:40:09;;;;;;;8.03;5.63;;;;;;;1.38;54.09;97649.16;5092140;28;20487;-37
2021/12/22 09:42:36;;;;;;;10.90;5.03;;;;;;;1.42;53.77;97655.72;5092476;28;20509;-37
2021/12/22 09:45:05;;;;;;;7.03;4.73;;;;;;;1.30;53.05;97651.75;5092135;28;20446;-36
2021/12/22 09:47:47;;;;;;;4.43;3.10;;;;;;;1.35;53.32;97649.47;5092042;28;20482;-37
2021/12/22 09:50:24;;;;;;;7.93;5.10;;;;;;;1.36;53.62;97641.47;5092411;28;20786;-38
2021/12/22 09:52:51;;;;;;;43.37;22.40;;;;;;;1.45;53.62;97647.56;5092035;28;20427;-37
2021/12/22 09:55:20;;;;;;;23.50;13.80;;;;;;;1.51;53.54;97654.78;5091996;28;20451;-37
2021/12/22 09:57:48;;;;;;;14.67;8.33;;;;;;;1.58;54.10;97650.53;5091935;28;20449;-37
2021/12/22 10:00:15;;;;;;;20.40;8.23;;;;;;;1.67;54.00;97647.94;5092060;28;20483;-37
2021/12/22 10:02:43;;;;;;;62.33;21.27;;;;;;;1.67;53.49;97645.34;5091429;28;20517;-37
2021/12/22 10:05:10;;;;;;;12.97;7.10;;;;;;;1.52;53.58;97635.47;5092156;28;20935;-36
2021/12/22 10:07:38;;;;;;;19.50;10.40;;;;;;;1.38;53.40;97633.47;5091777;28;20451;-37
2021/12/22 10:10:09;;;;;;;11.93;5.67;;;;;;;1.15;53.73;97626.16;5091817;28;20534;-36
2021/12/22 10:12:38;;;;;;;8.20;6.40;;;;;;;0.93;54.95;97629.31;5091797;28;20511;-37
2021/12/22 10:15:09;;;;;;;12.03;5.47;;;;;;;0.90;55.58;97624.38;5091103;28;20449;-37
2021/12/22 10:17:40;;;;;;;5.03;3.87;;;;;;;0.92;55.54;97638.13;5091624;28;20435;-37
2021/12/22 10:20:11;;;;;;;3.90;3.10;;;;;;;0.89;55.14;97643.69;5091403;28;20581;-37
2021/12/22 10:22:41;;;;;;;5.33;3.60;;;;;;;0.97;55.80;97631.47;5091921;28;20432;-37
2021/12/22 10:25:12;;;;;;;7.87;5.00;;;;;;;1.06;55.47;97629.72;5091776;28;20449;-37
2021/12/22 10:27:43;;;;;;;5.57;4.40;;;;;;;1.12;55.60;97618.63;5091434;28;20431;-37
2021/12/22 10:30:29;;;;;;;10.50;4.93;;;;;;;1.14;54.19;97616.69;5091279;28;20874;-39
2021/12/22 10:33:09;;;;;;;41.10;15.00;;;;;;;1.08;55.06;97619.91;5091454;28;20431;-38
2021/12/22 10:35:38;;;;;;;65.47;25.23;;;;;;;1.12;54.49;97629.09;5091753;28;20438;-36
2021/12/22 10:38:07;;;;;;;4.80;4.03;;;;;;;1.07;54.59;97620.88;5091371;28;20451;-37
2021/12/22 10:40:36;;;;;;;4.60;3.47;;;;;;;1.21;54.98;97617.69;5090839;28;21021;-37
2021/12/22 10:43:09;;;;;;;37.60;16.80;;;;;;;1.43;53.17;97628.56;5092757;28;20550;-37
2021/12/22 10:45:37;;;;;;;28.03;13.90;;;;;;;1.56;53.99;97604.56;5095492;28;20446;-37
2021/12/22 10:50:57;;;;;;;16.30;8.73;;;;;;;1.70;49.52;97616.19;5095595;28;20413;-37
2021/12/22 10:53:25;;;;;;;6.00;4.57;;;;;;;1.86;48.20;97611.00;5095281;28;20553;-36
2021/12/22 10:55:56;;;;;;;4.47;4.17;;;;;;;1.90;47.42;97607.09;5095395;28;20439;-36
2021/12/22 10:58:32;;;;;;;2.80;2.60;;;;;;;1.88;46.22;97598.56;5095423;28;20514;-36
2021/12/22 11:01:09;;;;;;;14.10;7.07;;;;;;;1.87;48.16;97585.63;5095257;28;20478;-37
2021/12/22 11:03:44;;;;;;;5.70;5.30;;;;;;;2.05;46.50;97600.22;5095547;28;20461;-37
2021/12/22 11:06:16;;;;;;;15.93;7.53;;;;;;;2.04;46.55;97587.28;5095039;28;20487;-36
2021/12/22 11:08:54;;;;;;;8.30;5.10;;;;;;;2.14;46.79;97587.16;5095112;28;20423;-36
2021/12/22 11:11:21;;;;;;;16.20;8.20;;;;;;;2.29;47.33;97595.19;5095179;28;20833;-36
2021/12/22 11:14:05;;;;;;;6.30;3.80;;;;;;;2.33;44.67;97589.44;5095292;28;20451;-35
2021/12/22 11:16:33;;;;;;;3.80;2.93;;;;;;;2.21;46.01;97593.34;5095326;28;20426;-36
2021/12/22 11:19:10;;;;;;;26.70;11.40;;;;;;;2.20;46.49;97583.88;5094897;28;20802;-37
2021/12/22 11:21:58;;;;;;;40.77;14.67;;;;;;;2.31;47.70;97587.97;5094703;28;20453;-36
2021/12/22 11:24:26;;;;;;;18.97;7.30;;;;;;;2.34;47.87;97587.63;5094838;28;20496;-37
2021/12/22 11:26:54;;;;;;;9.20;4.80;;;;;;;2.29;46.51;97587.31;5095087;28;20438;-36
2021/12/22 11:29:24;;;;;;;13.73;5.10;;;;;;;2.28;46.02;97583.88;5094469;28;21015;-36
2021/12/22 11:31:53;;;;;;;9.10;5.90;;;;;;;2.32;46.41;97582.53;5094677;28;20446;-37
2021/12/22 11:34:22;;;;;;;11.33;5.77;;;;;;;2.38;47.60;97584.50;5096382;28;20545;-36
2021/12/22 11:36:50;;;;;;;13.83;7.73;;;;;;;2.26;47.39;97549.16;5096874;28;20801;-36
2021/12/22 11:39:19;;;;;;;7.17;5.10;;;;;;;2.36;47.25;97581.22;5096754;28;20508;-36
2021/12/22 11:41:57;;;;;;;11.97;5.97;;;;;;;2.25;45.89;97571.09;5096861;28;20926;-36
2021/12/22 11:44:27;;;;;;;4.50;3.37;;;;;;;2.27;45.44;97581.41;5096506;28;20431;-36
2021/12/22 11:46:57;;;;;;;13.03;5.60;;;;;;;2.27;46.86;97571.75;5096423;28;20442;-36
2021/12/22 11:49:25;;;;;;;4.80;3.03;;;;;;;2.33;47.75;97571.09;5096631;28;20479;-36
2021/12/22 11:51:53;;;;;;;16.77;7.27;;;;;;;2.33;45.67;97570.28;5096640;28;20522;-36